Gagarin, Russia
Current Conditions -  °F | °C
As of 11:30 AM on Saturday 29 Nov 2014 (Local Time) from UUBW Reporting Station
Broken Clouds Broken Clouds  
Wind Chill:   Ceiling: 20000
Heat Index: 16°   Visibility: 5mi
Dew Point: 12°   Wind: 7mph
Humidity: 86%   Direction: 80°E
Pressure: 30.62"   Gusts: NA
Location:  55.55°N, 35°E
Report Text: UUBW 290830Z 08003MPS 8000 BKN200 M09/M11 Q1037 NOSIG
Loading
Personal Weather Stations






























Interactive Weather Map New forecast layout! Learn more

10-Day Weather Forecast

Advertisements
Track Severe Weather on mobile